createdAt,value
2023-04-04T00:02:22.352Z,1.90
2023-04-04T00:04:49.156Z,1.90
2023-04-04T00:07:16.311Z,1.80
2023-04-04T00:09:43.022Z,1.80
2023-04-04T00:12:09.787Z,1.80
2023-04-04T00:14:36.647Z,1.80
2023-04-04T00:17:03.908Z,1.70
2023-04-04T00:19:30.704Z,1.70
2023-04-04T00:21:57.487Z,1.70
2023-04-04T00:24:24.823Z,1.70
2023-04-04T00:26:51.750Z,1.60
2023-04-04T00:29:18.626Z,1.60
2023-04-04T00:31:45.658Z,1.60
2023-04-04T00:34:12.592Z,1.90
2023-04-04T00:36:39.471Z,1.50
2023-04-04T00:39:06.335Z,1.50
2023-04-04T00:41:33.336Z,1.50
2023-04-04T00:44:00.722Z,1.40
2023-04-04T00:46:29.382Z,1.30
2023-04-04T00:48:56.673Z,1.40
2023-04-04T00:51:23.502Z,1.40
2023-04-04T00:53:51.369Z,1.30
2023-04-04T00:56:19.290Z,1.30
2023-04-04T00:58:47.091Z,1.70
2023-04-04T01:01:14.113Z,1.30
2023-04-04T01:03:41.672Z,1.50
2023-04-04T01:06:08.988Z,1.20
2023-04-04T01:08:40.245Z,1.40
2023-04-04T01:11:07.184Z,1.10
2023-04-04T01:13:33.968Z,1.10
2023-04-04T01:16:01.553Z,1.20
2023-04-04T01:18:29.334Z,0.90
2023-04-04T01:21:06.201Z,1.90
2023-04-04T01:23:50.554Z,1.10
2023-04-04T01:26:17.481Z,1.00
2023-04-04T01:28:44.364Z,0.90
2023-04-04T01:31:14.240Z,0.90
2023-04-04T01:33:53.122Z,1.70
2023-04-04T01:36:30.795Z,0.80
2023-04-04T01:39:10.671Z,0.80
2023-04-04T01:41:39.328Z,0.90
2023-04-04T01:44:06.459Z,0.80
2023-04-04T01:46:33.288Z,0.70
2023-04-04T01:49:00.399Z,1.40
2023-04-04T01:51:27.656Z,0.30
2023-04-04T01:53:54.919Z,0.70
2023-04-04T01:58:48.982Z,0.70
2023-04-04T02:01:15.970Z,0.60
2023-04-04T02:03:42.813Z,0.60
2023-04-04T02:06:09.584Z,0.60
2023-04-04T02:08:36.472Z,0.60
2023-04-04T02:11:03.300Z,0.50
2023-04-04T02:13:30.138Z,0.50
2023-04-04T02:15:56.895Z,0.40
2023-04-04T02:18:24.804Z,0.40
2023-04-04T02:20:57.879Z,0.40
2023-04-04T02:23:24.929Z,0.40
2023-04-04T02:25:51.978Z,0.40
2023-04-04T02:28:19.306Z,0.40
2023-04-04T02:30:47.309Z,0.40
2023-04-04T02:33:14.042Z,0.40
2023-04-04T02:35:40.917Z,0.40
2023-04-04T02:38:07.766Z,0.30
2023-04-04T02:40:35.885Z,0.30
2023-04-04T02:43:02.630Z,0.30
2023-04-04T02:45:29.408Z,0.30
2023-04-04T02:47:56.126Z,0.30
2023-04-04T02:50:22.861Z,0.30
2023-04-04T02:52:49.681Z,0.30
2023-04-04T02:55:16.536Z,0.20
2023-04-04T02:57:43.284Z,0.20
2023-04-04T03:00:11.475Z,0.20
2023-04-04T03:02:38.367Z,0.20
2023-04-04T03:05:05.702Z,0.10
2023-04-04T03:07:32.832Z,0.00
2023-04-04T03:09:59.568Z,0.10
2023-04-04T03:12:27.705Z,0.10
2023-04-04T03:14:54.522Z,0.10
2023-04-04T03:17:21.625Z,0.00
2023-04-04T03:19:49.050Z,0.00
2023-04-04T03:22:16.418Z,0.00
2023-04-04T03:24:43.189Z,0.00
2023-04-04T03:27:09.925Z,0.00
2023-04-04T03:29:36.800Z,0.00
2023-04-04T03:32:03.577Z,-0.10
2023-04-04T03:34:31.958Z,-0.10
2023-04-04T03:36:58.817Z,-0.10
2023-04-04T03:39:31.855Z,-0.10
2023-04-04T03:41:58.575Z,-0.10
2023-04-04T03:44:25.494Z,-0.20
2023-04-04T03:46:52.301Z,-0.20
2023-04-04T03:49:19.149Z,-0.20
2023-04-04T03:51:45.834Z,-0.20
2023-04-04T03:54:12.589Z,-0.30
2023-04-04T03:56:39.530Z,-0.30
2023-04-04T03:59:06.868Z,-0.30
2023-04-04T04:01:33.622Z,-0.30
2023-04-04T04:04:01.465Z,-0.30
2023-04-04T04:06:28.349Z,-0.20
2023-04-04T04:08:56.458Z,-0.30
2023-04-04T04:11:24.317Z,-0.30
2023-04-04T04:13:51.125Z,-0.30
2023-04-04T04:16:17.944Z,-0.40
2023-04-04T04:18:45.057Z,-0.30
2023-04-04T04:21:11.795Z,-0.40
2023-04-04T04:23:38.563Z,-0.40
2023-04-04T04:26:06.654Z,-0.40
2023-04-04T04:28:34.419Z,-0.50
2023-04-04T04:31:09.011Z,-0.50
2023-04-04T04:33:36.280Z,-0.50
2023-04-04T04:36:04.866Z,-0.50
2023-04-04T04:38:32.215Z,-0.50
2023-04-04T04:40:59.406Z,-0.50
2023-04-04T04:43:26.409Z,-0.50
2023-04-04T04:45:53.487Z,-0.50
2023-04-04T04:48:20.331Z,-0.50
2023-04-04T04:50:48.338Z,-0.50
2023-04-04T04:53:15.189Z,-0.50
2023-04-04T04:55:45.459Z,-0.60
2023-04-04T04:58:12.751Z,-0.60
2023-04-04T05:00:42.839Z,-0.60
2023-04-04T05:03:09.729Z,-0.60
2023-04-04T05:05:36.623Z,-0.60
2023-04-04T05:08:04.205Z,-0.60
2023-04-04T05:10:31.743Z,-0.60
2023-04-04T05:12:58.735Z,-0.60
2023-04-04T05:15:31.615Z,-0.60
2023-04-04T05:17:59.241Z,-0.60
2023-04-04T05:20:26.082Z,-0.60
2023-04-04T05:22:53.151Z,-0.60
2023-04-04T05:25:20.092Z,-0.60
2023-04-04T05:27:49.992Z,-0.60
2023-04-04T05:30:17.121Z,-0.60
2023-04-04T05:32:47.136Z,-0.50
2023-04-04T05:35:14.070Z,-0.50
2023-04-04T05:37:41.205Z,-0.50
2023-04-04T05:40:09.034Z,-0.50
2023-04-04T05:42:35.875Z,-0.50
2023-04-04T05:45:03.801Z,-0.40
2023-04-04T05:47:30.648Z,-0.40
2023-04-04T05:49:57.898Z,-0.40
2023-04-04T05:52:24.880Z,-0.30
2023-04-04T05:54:51.712Z,-0.30
2023-04-04T05:57:18.394Z,-0.20
2023-04-04T05:59:45.405Z,-0.10
2023-04-04T06:02:12.211Z,-0.10
2023-04-04T06:04:40.936Z,0.00
2023-04-04T06:07:07.832Z,0.10
2023-04-04T06:09:36.269Z,0.20
2023-04-04T06:12:04.720Z,0.30
2023-04-04T06:14:31.538Z,0.40
2023-04-04T06:16:59.014Z,0.50
2023-04-04T06:19:26.064Z,0.60
2023-04-04T06:21:53.139Z,0.70
2023-04-04T06:24:19.930Z,0.80
2023-04-04T06:26:46.694Z,0.90
2023-04-04T06:29:13.427Z,1.00
2023-04-04T06:31:43.330Z,1.10
2023-04-04T06:34:10.158Z,1.30
2023-04-04T06:36:36.876Z,1.40
2023-04-04T06:39:03.959Z,1.60
2023-04-04T06:41:31.026Z,1.70
2023-04-04T06:43:58.475Z,1.90
2023-04-04T06:46:27.046Z,2.10
2023-04-04T06:48:54.868Z,2.30
2023-04-04T06:51:21.879Z,2.50
2023-04-04T06:53:49.153Z,2.60
2023-04-04T06:56:16.126Z,2.70
2023-04-04T06:58:43.220Z,2.90
2023-04-04T07:01:10.285Z,3.50
2023-04-04T07:03:37.492Z,5.40
2023-04-04T07:06:04.905Z,5.50
2023-04-04T07:08:36.292Z,6.50
2023-04-04T07:11:04.795Z,7.50
2023-04-04T07:15:58.622Z,8.70
2023-04-04T07:18:25.566Z,9.00
2023-04-04T07:20:52.501Z,9.10
2023-04-04T07:23:19.185Z,9.40
2023-04-04T07:25:47.286Z,9.80
2023-04-04T07:28:14.044Z,10.40
2023-04-04T07:30:41.441Z,11.10
2023-04-04T07:33:08.526Z,11.80
2023-04-04T07:35:35.560Z,12.40
2023-04-04T07:38:03.152Z,12.70
2023-04-04T07:40:30.138Z,13.10
2023-04-04T07:42:56.991Z,13.30
2023-04-04T07:45:23.795Z,13.40
2023-04-04T07:47:51.154Z,13.50
2023-04-04T07:50:19.071Z,13.80
2023-04-04T07:52:52.391Z,14.00
2023-04-04T07:55:20.219Z,14.30
2023-04-04T07:57:47.301Z,14.40
2023-04-04T08:00:14.689Z,14.60
2023-04-04T08:02:43.774Z,14.80
2023-04-04T08:05:11.000Z,15.00
2023-04-04T08:07:37.849Z,15.20
2023-04-04T08:10:05.075Z,15.30
2023-04-04T08:12:32.464Z,15.50
2023-04-04T08:14:59.258Z,15.70
2023-04-04T08:17:26.608Z,16.00
2023-04-04T08:19:53.550Z,15.60
2023-04-04T08:22:20.311Z,15.70
2023-04-04T08:24:47.024Z,15.70
2023-04-04T08:27:15.031Z,15.60
2023-04-04T08:29:42.081Z,16.00
2023-04-04T08:32:09.398Z,15.80
2023-04-04T08:34:36.389Z,15.70
2023-04-04T08:37:03.217Z,15.70
2023-04-04T08:39:29.993Z,15.50
2023-04-04T08:42:05.472Z,15.70
2023-04-04T08:44:34.107Z,15.80
2023-04-04T08:47:09.450Z,15.90
2023-04-04T08:49:42.413Z,15.40
2023-04-04T08:52:12.038Z,15.10
2023-04-04T08:54:40.675Z,15.00
2023-04-04T08:57:08.365Z,15.00
2023-04-04T08:59:35.713Z,15.20
2023-04-04T09:02:15.999Z,15.00
2023-04-04T09:04:58.201Z,14.90
2023-04-04T09:07:32.322Z,14.80
2023-04-04T09:09:59.664Z,14.50
2023-04-04T09:12:27.288Z,14.70
2023-04-04T09:14:56.750Z,14.70
2023-04-04T09:17:23.744Z,14.70
2023-04-04T09:19:50.875Z,14.60
2023-04-04T09:22:17.758Z,14.70
2023-04-04T09:24:44.971Z,14.80
2023-04-04T09:27:12.465Z,15.00
2023-04-04T09:29:40.932Z,14.90
2023-04-04T09:32:14.377Z,14.40
2023-04-04T09:34:42.087Z,14.30
2023-04-04T09:37:08.817Z,14.10
2023-04-04T09:39:39.370Z,14.10
2023-04-04T09:42:07.635Z,14.10
2023-04-04T09:44:36.882Z,14.10
2023-04-04T09:47:30.555Z,14.00
2023-04-04T09:50:02.357Z,13.90
2023-04-04T09:52:33.995Z,13.90
2023-04-04T09:55:02.105Z,13.70
2023-04-04T09:57:34.508Z,13.60
2023-04-04T10:00:04.249Z,13.40
2023-04-04T10:02:31.451Z,13.50
2023-04-04T10:05:05.909Z,13.50
2023-04-04T10:07:33.968Z,13.40
2023-04-04T10:10:06.661Z,13.30
2023-04-04T10:12:33.395Z,13.40
2023-04-04T10:15:01.213Z,13.40
2023-04-04T10:17:36.379Z,13.30
2023-04-04T10:20:09.112Z,13.10
2023-04-04T10:22:37.870Z,13.10
2023-04-04T10:25:06.034Z,13.10
2023-04-04T10:27:33.788Z,13.10
2023-04-04T10:30:01.084Z,13.10
2023-04-04T10:32:45.231Z,12.90
2023-04-04T10:35:13.328Z,12.90
2023-04-04T10:38:09.888Z,12.50
2023-04-04T10:40:40.354Z,12.50
2023-04-04T10:43:07.755Z,12.30
2023-04-04T10:45:40.154Z,12.30
2023-04-04T10:48:11.573Z,12.00
2023-04-04T10:50:39.453Z,12.00
2023-04-04T10:53:07.704Z,11.90
2023-04-04T10:55:37.692Z,12.00
2023-04-04T10:58:11.358Z,12.00
2023-04-04T11:00:52.677Z,12.00
2023-04-04T11:03:19.920Z,12.10
2023-04-04T11:05:47.530Z,12.20
2023-04-04T11:08:25.438Z,12.20
2023-04-04T11:10:53.927Z,12.20
2023-04-04T11:13:32.678Z,12.00
2023-04-04T11:16:01.043Z,12.00
2023-04-04T11:18:43.285Z,12.10
2023-04-04T11:21:15.254Z,12.30
2023-04-04T11:23:48.705Z,12.40
2023-04-04T11:26:27.998Z,12.30
2023-04-04T11:29:00.084Z,12.40
2023-04-04T11:31:29.674Z,12.50
2023-04-04T11:34:03.339Z,12.70
2023-04-04T11:36:36.841Z,12.70
2023-04-04T11:39:28.739Z,12.80
2023-04-04T11:42:07.851Z,12.80
2023-04-04T11:45:05.047Z,12.90
2023-04-04T11:47:32.156Z,12.90
2023-04-04T11:50:01.142Z,12.90
2023-04-04T11:52:35.145Z,13.00
2023-04-04T11:55:02.060Z,13.10
2023-04-04T11:57:28.954Z,13.10
2023-04-04T11:59:55.901Z,13.10
2023-04-04T12:02:34.919Z,13.20
2023-04-04T12:05:02.148Z,13.10
2023-04-04T12:07:32.157Z,13.20
2023-04-04T12:09:59.305Z,13.20
2023-04-04T12:12:28.407Z,13.30
2023-04-04T12:15:06.284Z,13.30
2023-04-04T12:17:43.666Z,13.20
2023-04-04T12:20:11.356Z,13.20
2023-04-04T12:22:38.585Z,13.40
2023-04-04T12:25:06.296Z,13.70
2023-04-04T12:27:33.797Z,13.70
2023-04-04T12:30:01.249Z,13.80
2023-04-04T12:32:28.175Z,13.90
2023-04-04T12:35:01.252Z,14.00
2023-04-04T12:37:31.205Z,13.80
2023-04-04T12:39:58.512Z,13.70
2023-04-04T12:42:28.995Z,13.70
2023-04-04T12:44:57.328Z,13.70
2023-04-04T12:47:26.269Z,13.70
2023-04-04T12:49:54.962Z,13.60
2023-04-04T12:52:26.874Z,13.70
2023-04-04T12:55:06.822Z,13.60
2023-04-04T12:57:41.050Z,13.60
2023-04-04T13:00:09.448Z,13.50
2023-04-04T13:02:37.974Z,13.60
2023-04-04T13:05:07.732Z,13.70
2023-04-04T13:07:46.398Z,13.70
2023-04-04T13:10:16.424Z,13.70
2023-04-04T13:13:01.094Z,13.70
2023-04-04T13:15:53.033Z,13.60
2023-04-04T13:18:22.638Z,13.60
2023-04-04T13:20:51.187Z,13.60
2023-04-04T13:23:18.972Z,13.70
2023-04-04T13:25:46.176Z,13.80
2023-04-04T13:28:13.065Z,13.80
2023-04-04T13:30:43.873Z,13.90
2023-04-04T13:33:11.258Z,14.00
2023-04-04T13:35:39.027Z,14.10
2023-04-04T13:38:06.200Z,14.20
2023-04-04T13:40:33.233Z,14.40
2023-04-04T13:43:00.257Z,14.50
2023-04-04T13:45:29.780Z,14.30
2023-04-04T13:47:56.934Z,14.00
2023-04-04T13:50:24.272Z,13.40
2023-04-04T13:52:54.308Z,13.50
2023-04-04T13:55:21.957Z,13.40
2023-04-04T13:57:48.997Z,13.80
2023-04-04T14:00:19.807Z,13.80
2023-04-04T14:02:49.117Z,14.00
2023-04-04T14:05:16.318Z,14.40
2023-04-04T14:07:43.269Z,14.20
2023-04-04T14:10:11.815Z,15.10
2023-04-04T14:12:38.992Z,14.00
2023-04-04T14:15:09.796Z,14.40
2023-04-04T14:17:37.487Z,13.70
2023-04-04T14:20:08.618Z,13.50
2023-04-04T14:22:36.296Z,13.80
2023-04-04T14:25:04.816Z,13.70
2023-04-04T14:27:31.832Z,14.00
2023-04-04T14:29:58.793Z,15.10
2023-04-04T14:32:26.622Z,14.30
2023-04-04T14:34:53.616Z,14.40
2023-04-04T14:37:20.791Z,14.30
2023-04-04T14:39:50.200Z,14.20
2023-04-04T14:42:17.078Z,14.80
2023-04-04T14:44:44.085Z,14.30
2023-04-04T14:47:10.991Z,14.30
2023-04-04T14:49:37.882Z,14.50
2023-04-04T14:52:05.265Z,14.00
2023-04-04T14:54:32.393Z,14.60
2023-04-04T14:56:59.335Z,14.40
2023-04-04T14:59:26.330Z,14.30
2023-04-04T15:01:53.208Z,14.80
2023-04-04T15:04:20.257Z,13.90
2023-04-04T15:06:47.334Z,15.00
2023-04-04T15:09:16.370Z,15.00
2023-04-04T15:11:43.367Z,13.80
2023-04-04T15:14:10.456Z,13.80
2023-04-04T15:16:38.333Z,13.90
2023-04-04T15:19:05.525Z,13.80
2023-04-04T15:21:32.440Z,13.90
2023-04-04T15:24:01.182Z,14.50
2023-04-04T15:26:28.253Z,13.70
2023-04-04T15:28:55.142Z,13.60
2023-04-04T15:31:22.105Z,13.70
2023-04-04T15:33:49.158Z,13.60
2023-04-04T15:36:16.172Z,13.60
2023-04-04T15:38:43.797Z,13.70
2023-04-04T15:41:10.857Z,13.50
2023-04-04T15:43:39.769Z,13.50
2023-04-04T15:46:06.591Z,13.50
2023-04-04T15:48:34.573Z,13.80
2023-04-04T15:51:05.323Z,14.20
2023-04-04T15:53:33.445Z,14.30
2023-04-04T15:56:02.139Z,13.60
2023-04-04T15:58:29.431Z,13.50
2023-04-04T16:00:56.580Z,13.90
2023-04-04T16:03:26.331Z,13.60
2023-04-04T16:05:54.292Z,13.20
2023-04-04T16:08:21.176Z,13.20
2023-04-04T16:10:48.104Z,13.60
2023-04-04T16:13:17.129Z,13.40
2023-04-04T16:15:44.018Z,12.80
2023-04-04T16:18:10.912Z,13.70
2023-04-04T16:20:39.989Z,13.10
2023-04-04T16:23:06.989Z,13.30
2023-04-04T16:25:33.758Z,12.60
2023-04-04T16:28:00.597Z,13.50
2023-04-04T16:30:28.557Z,12.60
2023-04-04T16:32:55.435Z,12.50
2023-04-04T16:35:22.488Z,12.70
2023-04-04T16:37:49.487Z,12.40
2023-04-04T16:40:16.589Z,12.30
2023-04-04T16:42:43.514Z,12.70
2023-04-04T16:45:11.047Z,12.80
2023-04-04T16:47:38.186Z,11.50
2023-04-04T16:50:06.482Z,12.30
2023-04-04T16:52:33.335Z,11.90
2023-04-04T16:55:00.488Z,11.60
2023-04-04T16:57:28.990Z,11.90
2023-04-04T16:59:55.856Z,12.40
2023-04-04T17:02:26.699Z,11.60
2023-04-04T17:04:56.699Z,12.50
2023-04-04T17:07:23.447Z,11.60
2023-04-04T17:09:51.509Z,12.60
2023-04-04T17:12:18.385Z,11.40
2023-04-04T17:14:48.352Z,11.20
2023-04-04T17:17:15.399Z,11.40
2023-04-04T17:19:42.210Z,11.40
2023-04-04T17:22:09.046Z,11.40
2023-04-04T17:24:35.984Z,12.50
2023-04-04T17:27:02.848Z,11.50
2023-04-04T17:29:29.867Z,11.40
2023-04-04T17:31:57.208Z,11.20
2023-04-04T17:36:54.959Z,11.20
2023-04-04T17:39:22.038Z,11.20
2023-04-04T17:41:49.328Z,11.10
2023-04-04T17:44:16.999Z,10.90
2023-04-04T17:46:45.036Z,11.00
2023-04-04T17:49:12.724Z,11.10
2023-04-04T17:51:39.673Z,12.20
2023-04-04T17:54:06.766Z,10.80
2023-04-04T17:56:35.834Z,11.00
2023-04-04T17:59:02.644Z,10.70
2023-04-04T18:01:29.606Z,10.60
2023-04-04T18:03:58.056Z,10.40
2023-04-04T18:06:24.998Z,10.30
2023-04-04T18:08:51.725Z,10.30
2023-04-04T18:11:18.584Z,10.30
2023-04-04T18:13:45.642Z,10.10
2023-04-04T18:16:12.723Z,9.90
2023-04-04T18:18:40.693Z,9.90
2023-04-04T18:21:08.343Z,9.70
2023-04-04T18:23:35.470Z,9.70
2023-04-04T18:26:02.727Z,9.60
2023-04-04T18:28:29.664Z,9.50
2023-04-04T18:30:56.711Z,9.40
2023-04-04T18:33:25.088Z,9.30
2023-04-04T18:35:51.980Z,9.20
2023-04-04T18:38:19.087Z,9.10
2023-04-04T18:40:46.673Z,9.00
2023-04-04T18:43:13.904Z,8.90
2023-04-04T18:45:41.922Z,8.80
2023-04-04T18:48:09.016Z,8.80
2023-04-04T18:50:36.071Z,8.70
2023-04-04T18:53:02.974Z,8.70
2023-04-04T18:55:29.726Z,8.60
2023-04-04T18:57:57.569Z,8.70
2023-04-04T19:00:24.671Z,8.60
2023-04-04T19:02:51.839Z,8.60
2023-04-04T19:05:24.189Z,8.60
2023-04-04T19:07:57.458Z,8.50
2023-04-04T19:10:24.238Z,8.50
2023-04-04T19:12:50.940Z,8.50
2023-04-04T19:15:17.913Z,8.40
2023-04-04T19:17:44.713Z,8.40
2023-04-04T19:20:12.588Z,8.30
2023-04-04T19:22:39.459Z,8.30
2023-04-04T19:25:06.518Z,8.30
2023-04-04T19:27:33.583Z,8.40
2023-04-04T19:30:00.624Z,8.30
2023-04-04T19:32:28.257Z,8.30
2023-04-04T19:34:56.354Z,8.30
2023-04-04T19:37:25.935Z,8.30
2023-04-04T19:39:52.701Z,8.30
2023-04-04T19:42:27.520Z,8.20
2023-04-04T19:44:56.992Z,8.20
2023-04-04T19:47:23.731Z,8.40
2023-04-04T19:49:53.148Z,8.40
2023-04-04T19:52:23.911Z,8.20
2023-04-04T19:54:50.673Z,8.20
2023-04-04T19:57:22.147Z,8.20
2023-04-04T19:59:56.728Z,8.10
2023-04-04T20:02:36.481Z,8.00
2023-04-04T20:05:29.147Z,8.00
2023-04-04T20:07:56.028Z,7.90
2023-04-04T20:10:42.477Z,7.90
2023-04-04T20:13:09.824Z,7.90
2023-04-04T20:15:49.681Z,7.80
2023-04-04T20:18:28.621Z,7.80
2023-04-04T20:21:02.836Z,7.80
2023-04-04T20:23:31.412Z,7.70
2023-04-04T20:26:07.296Z,7.60
2023-04-04T20:28:35.725Z,7.60
2023-04-04T20:31:07.013Z,7.60
2023-04-04T20:33:39.262Z,7.50
2023-04-04T20:36:10.641Z,7.40
2023-04-04T20:38:39.516Z,7.40
2023-04-04T20:41:14.313Z,7.40
2023-04-04T20:43:44.169Z,7.50
2023-04-04T20:46:14.953Z,7.20
2023-04-04T20:48:41.815Z,7.20
2023-04-04T20:51:25.109Z,7.10
2023-04-04T20:53:52.993Z,7.10
2023-04-04T20:56:37.760Z,7.00
2023-04-04T20:59:26.597Z,6.90
2023-04-04T21:01:54.142Z,6.80
2023-04-04T21:04:26.250Z,6.70
2023-04-04T21:06:53.610Z,6.40
2023-04-04T21:09:21.414Z,6.60
2023-04-04T21:11:48.223Z,6.40
2023-04-04T21:14:25.176Z,6.40
2023-04-04T21:16:52.054Z,6.40
2023-04-04T21:19:21.272Z,6.40
2023-04-04T21:21:48.955Z,6.20
2023-04-04T21:24:17.110Z,6.20
2023-04-04T21:26:44.062Z,6.10
2023-04-04T21:29:24.831Z,6.00
2023-04-04T21:31:54.063Z,6.00
2023-04-04T21:34:22.926Z,5.90
2023-04-04T21:36:51.945Z,6.00
2023-04-04T21:39:26.296Z,5.80
2023-04-04T21:41:59.329Z,5.70
2023-04-04T21:44:26.313Z,5.70
2023-04-04T21:46:55.219Z,5.50
2023-04-04T21:49:22.362Z,5.50
2023-04-04T21:51:49.442Z,5.50
2023-04-04T21:54:16.387Z,5.40
2023-04-04T21:56:43.240Z,5.40
2023-04-04T21:59:10.595Z,5.30
2023-04-04T22:01:38.514Z,5.50
2023-04-04T22:04:05.755Z,5.30
2023-04-04T22:06:32.519Z,5.30
2023-04-04T22:09:01.995Z,5.20
2023-04-04T22:11:29.378Z,5.10
2023-04-04T22:14:07.056Z,5.10
2023-04-04T22:16:39.632Z,5.10
2023-04-04T22:19:10.905Z,5.00
2023-04-04T22:21:38.252Z,6.60
2023-04-04T22:24:05.959Z,4.90
2023-04-04T22:26:33.377Z,4.90
2023-04-04T22:29:02.841Z,4.80
2023-04-04T22:31:30.110Z,4.80
2023-04-04T22:33:57.016Z,5.60
2023-04-04T22:36:25.224Z,4.70
2023-04-04T22:38:56.656Z,4.60
2023-04-04T22:41:28.578Z,4.50
2023-04-04T22:43:56.443Z,4.50
2023-04-04T22:46:25.866Z,4.50
2023-04-04T22:49:05.338Z,4.40
2023-04-04T22:51:43.054Z,4.30
2023-04-04T22:54:14.750Z,4.30
2023-04-04T22:56:41.784Z,4.20
2023-04-04T22:59:08.747Z,4.20
2023-04-04T23:01:35.750Z,4.10
2023-04-04T23:04:02.583Z,4.00
2023-04-04T23:06:29.656Z,4.00
2023-04-04T23:08:56.521Z,3.90
2023-04-04T23:11:23.389Z,3.80
2023-04-04T23:13:51.954Z,3.80
2023-04-04T23:16:19.000Z,3.70
2023-04-04T23:18:45.923Z,3.60
2023-04-04T23:21:12.735Z,3.60
2023-04-04T23:23:39.497Z,3.60
2023-04-04T23:26:06.471Z,3.50
2023-04-04T23:28:33.276Z,3.50
2023-04-04T23:31:00.560Z,3.40
2023-04-04T23:33:27.280Z,3.40
2023-04-04T23:35:54.087Z,3.30
2023-04-04T23:38:20.893Z,3.30
2023-04-04T23:40:49.577Z,3.30
2023-04-04T23:43:16.417Z,3.20
2023-04-04T23:45:43.218Z,3.20
2023-04-04T23:48:10.223Z,3.10
2023-04-04T23:50:37.998Z,3.10
2023-04-04T23:53:04.792Z,3.10
2023-04-04T23:55:31.600Z,3.10
2023-04-04T23:58:02.444Z,3.00
